Wetterstation Vordersexau
Wetterdaten: Dezember 2011
Datum Temp. A. Feuchte A. Luftdruck Regen Wind Richtung Taupunkt Windchill Windben
01.12.2011 8,7 C 72 % 1018,3 hPa 0,0 l/m 3,1 km/h NO 3,6 C 8,1 C 1,7 km/h
02.12.2011 8,4 C 80 % 1013,0 hPa 3,6 l/m 5,6 km/h SO 5,2 C 7,0 C 3,1 km/h
03.12.2011 7,2 C 81 % 1013,9 hPa 0,0 l/m 23,3 km/h W-SW 4,0 C -0,3 C 13,0 km/h
04.12.2011 10,9 C 83 % 1005,9 hPa 0,7 l/m 35,0 km/h W-SW 8,1 C 1,4 C 19,4 km/h
05.12.2011 6,7 C 81 % 1007,0 hPa 4,3 l/m 16,2 km/h W 3,6 C 1,6 C 9,0 km/h
06.12.2011 5,6 C 83 % 1010,8 hPa 0,7 l/m 22,8 km/h W-SW 2,9 C -3,1 C 12,7 km/h
07.12.2011 7,5 C 81 % 1011,2 hPa 4,6 l/m 23,1 km/h W-SW 4,5 C -0,2 C 12,8 km/h
08.12.2011 6,9 C 75 % 1021,7 hPa 0,0 l/m 13,1 km/h S-SW 2,7 C 2,9 C 7,3 km/h
09.12.2011 9,7 C 77 % 1013,2 hPa 8,2 l/m 28,4 km/h W-SW 5,8 C 2,3 C 15,8 km/h
10.12.2011 5,5 C 84 % 1014,2 hPa 6,4 l/m 0,0 km/h SO 3,0 C 5,5 C 0,0 km/h
11.12.2011 5,0 C 84 % 1014,7 hPa 0,0 l/m 0,0 km/h SO 2,4 C 5,0 C 0,0 km/h
12.12.2011 6,6 C 84 % 1010,8 hPa 1,8 l/m 7,9 km/h W 4,0 C 4,0 C 4,4 km/h
13.12.2011 7,4 C 74 % 1008,3 hPa 0,4 l/m 17,8 km/h W-SW 2,8 C 2,2 C 9,9 km/h
14.12.2011 8,6 C 77 % 1006,8 hPa 3,6 l/m 23,2 km/h W 4,6 C 1,3 C 12,9 km/h
15.12.2011 6,3 C 77 % 1009,5 hPa 0,4 l/m 19,7 km/h W 2,6 C -0,7 C 10,9 km/h
16.12.2011 7,5 C 79 % 990,4 hPa 3,6 l/m 25,0 km/h W 4,1 C 0,1 C 13,9 km/h
17.12.2011 1,9 C 86 % 1004,1 hPa 1,8 l/m 7,4 km/h W -0,3 C -1,1 C 4,1 km/h
18.12.2011 1,8 C 86 % 1011,0 hPa 1,1 l/m 6,4 km/h W -0,3 C -0,2 C 3,6 km/h
19.12.2011 0,6 C 84 % 1017,6 hPa 0,4 l/m 3,2 km/h W-NW -1,8 C -0,6 C 1,8 km/h
20.12.2011 0,8 C 83 % 1011,5 hPa 5,7 l/m 5,8 km/h O-NO -1,7 C -1,4 C 3,2 km/h
21.12.2011 3,0 C 85 % 1018,6 hPa 2,5 l/m 6,6 km/h W 0,7 C 1,4 C 3,7 km/h
22.12.2011 4,5 C 78 % 1022,8 hPa 13,9 l/m 0,0 km/h S-SO 0,9 C 4,5 C 0,0 km/h
23.12.2011 6,8 C 79 % 1022,2 hPa 0,7 l/m 5,3 km/h S-SO 3,4 C 5,1 C 2,9 km/h
24.12.2011 4,1 C 85 % 1025,5 hPa 2,8 l/m 6,9 km/h SO 1,8 C 2,1 C 3,9 km/h
25.12.2011 2,4 C 84 % 1034,5 hPa 0,0 l/m 1,0 km/h SO 0,0 C 2,1 C 0,6 km/h
26.12.2011 4,4 C 82 % 1036,2 hPa 0,0 l/m 0,1 km/h SO 1,5 C 4,4 C 0,1 km/h
27.12.2011 2,4 C 84 % 1034,3 hPa 0,0 l/m 0,0 km/h O-SO -0,0 C 2,4 C 0,0 km/h
28.12.2011 4,4 C 78 % 1026,9 hPa 0,0 l/m 3,5 km/h NO 0,9 C 3,3 C 1,9 km/h
29.12.2011 4,9 C 81 % 1023,9 hPa 0,0 l/m 16,0 km/h W-SW 1,9 C -1,0 C 8,9 km/h
30.12.2011 3,7 C 84 % 1015,7 hPa 1,4 l/m 11,2 km/h W 1,2 C -0,2 C 6,2 km/h
31.12.2011 6,3 C 85 % 1014,2 hPa 5,7 l/m 5,3 km/h W-SW 3,9 C 4,5 C 2,9 km/h
Min-Datum 19.12.11 13.12.11 16.12.11 22 Tage 01.12.11 - 20.12.11 20.12.11 01.12.11
Min-Zeit 00:30 10:30 13:30 - 00:30 - 04:30 04:30 00:30
Minimum -1,6 C 48 % 978,6 hPa - 0,0 km/h - -3,7 C -12,6 C 0,0 km/h
Max-Datum 01.12.11 03.12.11 26.12.11 22.12.11 09.12.11 - 01.12.11 01.12.11 09.12.11
Max-Zeit 12:30 03:30 10:30 15:30 07:30 - 10:30 12:30 07:30
Maximum 18,7 C 87 % 1037,4 hPa 13,9 l/m 60,3 km/h
W-SW
- 9,9 C 18,7 C 33,5 km/h
W-SW
Durchschnitt 5,5 C 81 % 1015,8 hPa #74,0 l/m 11,1 km/h W 2,5 C 2,0 C 6,1 km/h

Durchschnitt Minimum Temp.2,5 C
Durchschnitt Maximum Temp.8,8 C
www.sexauwetter.de